Time;durP1;ratioP1;P1;durP2;ratioP2;P2;SDS_P1;SDS_P2;PMS_P1;PMS_P2;Temp;Humidity;BMP_temperature;BMP_pressure;BME280_temperature;BME280_humidity;BME280_pressure;Samples;Min_cycle;Max_cycle;Signal;HPM_P1;HPM_P2
2023/05/24 00:01:55;;;;;;;31.77;8.00;;;;;;;;;;5029547;28;20045;-62
2023/05/24 00:04:23;;;;;;;44.43;10.33;;;;;;;;;;5029353;28;20466;-63
2023/05/24 00:06:49;;;;;;;35.27;10.30;;;;;;;;;;5029115;28;20049;-62
2023/05/24 00:09:16;;;;;;;38.67;10.20;;;;;;;;;;5029328;28;20049;-62
2023/05/24 00:11:42;;;;;;;30.93;10.37;;;;;;;;;;5036438;28;20049;-62
2023/05/24 00:14:08;;;;;;;49.93;10.57;;;;;;;;;;5029623;28;20508;-62
2023/05/24 00:16:35;;;;;;;39.20;11.27;;;;;;;;;;5028917;28;20045;-62
2023/05/24 00:19:01;;;;;;;44.33;12.60;;;;;;;;;;5028896;28;20045;-62
2023/05/24 00:21:27;;;;;;;42.67;11.37;;;;;;;;;;5029239;28;20049;-62
2023/05/24 00:23:53;;;;;;;45.13;12.00;;;;;;;;;;5029099;28;20046;-62
2023/05/24 00:26:20;;;;;;;49.63;11.27;;;;;;;;;;5029427;28;20048;-62
2023/05/24 00:28:46;;;;;;;41.37;11.47;;;;;;;;;;5029143;28;20041;-62
2023/05/24 00:31:12;;;;;;;38.70;10.10;;;;;;;;;;5028999;28;20072;-62
2023/05/24 00:33:38;;;;;;;35.90;10.00;;;;;;;;;;5028113;28;20144;-62
2023/05/24 00:36:04;;;;;;;37.70;8.77;;;;;;;;;;5041852;28;20041;-62
2023/05/24 00:38:30;;;;;;;36.80;9.80;;;;;;;;;;5034795;28;20419;-62
2023/05/24 00:40:58;;;;;;;41.97;9.93;;;;;;;;;;5048992;28;20049;-62
2023/05/24 00:43:24;;;;;;;37.33;10.17;;;;;;;;;;5048980;28;20167;-62
2023/05/24 00:46:03;;;;;;;39.63;10.27;;;;;;;;;;5048911;28;20047;-62
2023/05/24 00:48:29;;;;;;;39.40;10.43;;;;;;;;;;5048875;28;20049;-62
2023/05/24 00:50:56;;;;;;;36.80;10.83;;;;;;;;;;5044396;28;20480;-62
2023/05/24 00:53:22;;;;;;;39.37;9.47;;;;;;;;;;5028831;28;20399;-62
2023/05/24 00:55:48;;;;;;;42.37;10.57;;;;;;;;;;5028044;28;20049;-62
2023/05/24 00:58:14;;;;;;;34.63;8.83;;;;;;;;;;5028380;28;20045;-62
2023/05/24 01:00:42;;;;;;;37.23;10.57;;;;;;;;;;5029047;28;20089;-62
2023/05/24 01:03:09;;;;;;;37.33;9.37;;;;;;;;;;5029028;28;20037;-62
2023/05/24 01:05:35;;;;;;;46.10;12.30;;;;;;;;;;5028694;28;20045;-62
2023/05/24 01:08:10;;;;;;;36.27;9.90;;;;;;;;;;5030428;28;20105;-62
2023/05/24 01:10:55;;;;;;;34.87;9.70;;;;;;;;;;5048531;28;20478;-61
2023/05/24 01:13:31;;;;;;;32.37;9.60;;;;;;;;;;5048096;28;20056;-62
2023/05/24 01:15:57;;;;;;;35.67;9.33;;;;;;;;;;5047040;28;20057;-62
2023/05/24 01:18:29;;;;;;;37.20;9.97;;;;;;;;;;5046586;28;20061;-62
2023/05/24 01:21:13;;;;;;;37.17;9.77;;;;;;;;;;5047877;28;20045;-62
2023/05/24 01:23:58;;;;;;;41.07;10.57;;;;;;;;;;5048079;28;20053;-62
2023/05/24 01:26:25;;;;;;;46.40;9.17;;;;;;;;;;5031563;28;20049;-62
2023/05/24 01:28:51;;;;;;;39.73;10.40;;;;;;;;;;5048674;28;20048;-62
2023/05/24 01:31:18;;;;;;;39.60;9.90;;;;;;;;;;5048376;28;20944;-62
2023/05/24 01:33:44;;;;;;;35.40;9.17;;;;;;;;;;5048338;28;20045;-62
2023/05/24 01:36:10;;;;;;;43.37;10.10;;;;;;;;;;5047871;28;20455;-62
2023/05/24 01:38:37;;;;;;;38.53;9.87;;;;;;;;;;5047526;28;20049;-62
2023/05/24 01:41:19;;;;;;;49.67;10.97;;;;;;;;;;5048167;28;20068;-62
2023/05/24 01:43:51;;;;;;;43.57;9.97;;;;;;;;;;5048407;28;20049;-62
2023/05/24 01:46:23;;;;;;;46.10;9.23;;;;;;;;;;5051606;28;20052;-62
2023/05/24 01:49:00;;;;;;;37.60;10.68;;;;;;;;;;5051567;28;20195;-62
2023/05/24 01:51:29;;;;;;;39.57;9.97;;;;;;;;;;5051849;28;20483;-62
2023/05/24 01:53:57;;;;;;;49.37;11.17;;;;;;;;;;5052104;28;20048;-62
2023/05/24 01:56:26;;;;;;;48.90;11.57;;;;;;;;;;5051794;28;20051;-62
2023/05/24 01:58:53;;;;;;;37.83;11.60;;;;;;;;;;5051966;28;20056;-62
2023/05/24 02:01:19;;;;;;;36.33;10.73;;;;;;;;;;5051043;28;20041;-62
2023/05/24 02:03:46;;;;;;;47.70;11.07;;;;;;;;;;5031378;28;20041;-62
2023/05/24 02:06:12;;;;;;;42.70;11.23;;;;;;;;;;5031973;28;20045;-63
2023/05/24 02:08:38;;;;;;;49.23;10.43;;;;;;;;;;5031776;28;20566;-62
2023/05/24 02:11:04;;;;;;;53.70;11.73;;;;;;;;;;5030849;28;20045;-62
2023/05/24 02:13:30;;;;;;;38.90;11.60;;;;;;;;;;5031653;28;20404;-62
2023/05/24 02:15:56;;;;;;;39.10;10.63;;;;;;;;;;5030427;28;20051;-62
2023/05/24 02:18:22;;;;;;;44.00;10.67;;;;;;;;;;5031294;28;20054;-62
2023/05/24 02:20:48;;;;;;;45.03;12.13;;;;;;;;;;5031565;28;20471;-62
2023/05/24 02:23:14;;;;;;;37.67;11.07;;;;;;;;;;5031461;28;20068;-62
2023/05/24 02:25:40;;;;;;;50.77;12.67;;;;;;;;;;5040036;28;20049;-62
2023/05/24 02:28:07;;;;;;;40.63;10.77;;;;;;;;;;5036509;28;20045;-62
2023/05/24 02:30:33;;;;;;;41.10;11.00;;;;;;;;;;5031578;28;20064;-62
2023/05/24 02:32:59;;;;;;;49.97;11.07;;;;;;;;;;5043469;28;20430;-62
2023/05/24 02:35:25;;;;;;;37.77;10.13;;;;;;;;;;5050029;28;20060;-61
2023/05/24 02:37:51;;;;;;;45.70;12.40;;;;;;;;;;5039045;28;20407;-62
2023/05/24 02:40:17;;;;;;;45.33;12.37;;;;;;;;;;5031317;28;20045;-62
2023/05/24 02:42:44;;;;;;;44.37;10.97;;;;;;;;;;5030932;28;20049;-62
2023/05/24 02:45:10;;;;;;;40.83;10.63;;;;;;;;;;5031166;28;20083;-62
2023/05/24 02:47:36;;;;;;;41.33;11.03;;;;;;;;;;5030792;28;20092;-62
2023/05/24 02:50:03;;;;;;;42.40;11.77;;;;;;;;;;5030779;28;20053;-62
2023/05/24 02:52:29;;;;;;;48.17;11.77;;;;;;;;;;5031229;28;20045;-61
2023/05/24 02:54:56;;;;;;;43.50;11.13;;;;;;;;;;5030346;28;20045;-62
2023/05/24 02:57:22;;;;;;;45.80;10.87;;;;;;;;;;5035509;28;20048;-62
2023/05/24 02:59:48;;;;;;;37.80;10.83;;;;;;;;;;5041355;28;20053;-62
2023/05/24 03:02:14;;;;;;;41.73;11.00;;;;;;;;;;5030940;28;20045;-62
2023/05/24 03:04:40;;;;;;;57.47;15.00;;;;;;;;;;5030901;28;20057;-62
2023/05/24 03:07:06;;;;;;;51.47;12.17;;;;;;;;;;5030913;28;20156;-62
2023/05/24 03:09:32;;;;;;;45.40;11.17;;;;;;;;;;5030273;28;20045;-62
2023/05/24 03:11:58;;;;;;;39.90;11.37;;;;;;;;;;5030231;28;20049;-62
2023/05/24 03:14:24;;;;;;;49.07;12.07;;;;;;;;;;5030614;28;20056;-62
2023/05/24 03:16:50;;;;;;;52.13;12.40;;;;;;;;;;5030444;28;20041;-62
2023/05/24 03:19:16;;;;;;;52.13;12.23;;;;;;;;;;5030283;28;20056;-62
2023/05/24 03:21:43;;;;;;;62.43;14.80;;;;;;;;;;5030136;28;20554;-62
2023/05/24 03:24:09;;;;;;;38.23;11.50;;;;;;;;;;5030050;28;20049;-62
2023/05/24 03:26:35;;;;;;;40.70;11.63;;;;;;;;;;5030024;28;20460;-62
2023/05/24 03:29:01;;;;;;;40.67;10.73;;;;;;;;;;5044905;28;20303;-62
2023/05/24 03:31:27;;;;;;;54.20;12.07;;;;;;;;;;5030025;28;20053;-62
2023/05/24 03:33:54;;;;;;;40.57;11.80;;;;;;;;;;5030116;28;20232;-62
2023/05/24 03:36:20;;;;;;;49.70;12.10;;;;;;;;;;5029664;28;20438;-62
2023/05/24 03:38:46;;;;;;;49.13;12.57;;;;;;;;;;5030079;28;20059;-61
2023/05/24 03:41:12;;;;;;;50.90;12.67;;;;;;;;;;5029691;28;20072;-62
2023/05/24 03:43:38;;;;;;;49.77;12.17;;;;;;;;;;5029608;28;20504;-62
2023/05/24 03:46:04;;;;;;;38.77;11.97;;;;;;;;;;5029886;28;20126;-62
2023/05/24 03:48:31;;;;;;;44.33;12.33;;;;;;;;;;5029151;28;20388;-62
2023/05/24 03:50:57;;;;;;;45.20;11.07;;;;;;;;;;5029327;28;20622;-62
2023/05/24 03:53:23;;;;;;;36.37;9.93;;;;;;;;;;5028891;28;20439;-62
2023/05/24 03:55:49;;;;;;;47.63;10.83;;;;;;;;;;5032382;28;20037;-61
2023/05/24 03:58:15;;;;;;;45.27;10.23;;;;;;;;;;5049204;28;20053;-62
2023/05/24 04:00:41;;;;;;;50.23;12.57;;;;;;;;;;5044663;28;20076;-62
2023/05/24 04:03:07;;;;;;;41.60;11.07;;;;;;;;;;5029447;28;20065;-62
2023/05/24 04:05:34;;;;;;;54.17;12.77;;;;;;;;;;5029484;28;20519;-62
2023/05/24 04:08:00;;;;;;;51.10;12.90;;;;;;;;;;5028422;28;20125;-62
2023/05/24 04:10:26;;;;;;;59.43;14.03;;;;;;;;;;5028965;28;20089;-62
2023/05/24 04:12:52;;;;;;;41.87;11.10;;;;;;;;;;5027938;28;20412;-62
2023/05/24 04:15:18;;;;;;;40.27;11.17;;;;;;;;;;5028090;28;20385;-62
2023/05/24 04:17:46;;;;;;;43.90;10.63;;;;;;;;;;5028300;28;20041;-62
2023/05/24 04:20:12;;;;;;;50.40;12.53;;;;;;;;;;5042190;28;20045;-62
2023/05/24 04:22:39;;;;;;;49.50;12.77;;;;;;;;;;5048297;28;20045;-62
2023/05/24 04:25:05;;;;;;;48.70;11.73;;;;;;;;;;5048363;28;20083;-62
2023/05/24 04:27:31;;;;;;;40.17;11.43;;;;;;;;;;5047918;28;20057;-62
2023/05/24 04:29:58;;;;;;;48.47;11.70;;;;;;;;;;5046076;28;20049;-62
2023/05/24 04:32:25;;;;;;;48.13;11.17;;;;;;;;;;5047485;28;20057;-62
2023/05/24 04:34:51;;;;;;;46.63;10.97;;;;;;;;;;5048056;28;20049;-62
2023/05/24 04:37:17;;;;;;;32.07;10.07;;;;;;;;;;5048306;28;20757;-62
2023/05/24 04:39:44;;;;;;;49.93;12.33;;;;;;;;;;5047955;28;20124;-62
2023/05/24 04:42:11;;;;;;;41.83;11.03;;;;;;;;;;5047321;28;20080;-62
2023/05/24 04:44:37;;;;;;;53.20;11.53;;;;;;;;;;5047934;28;20045;-62
2023/05/24 04:47:03;;;;;;;37.03;10.23;;;;;;;;;;5048237;28;20507;-62
2023/05/24 04:49:29;;;;;;;36.37;10.70;;;;;;;;;;5047850;28;20106;-62
2023/05/24 04:51:56;;;;;;;44.53;11.40;;;;;;;;;;5048029;28;20422;-62
2023/05/24 04:54:23;;;;;;;38.60;9.80;;;;;;;;;;5047127;28;20044;-62
2023/05/24 04:56:49;;;;;;;42.70;10.47;;;;;;;;;;5047936;28;20266;-63
2023/05/24 04:59:15;;;;;;;37.50;9.50;;;;;;;;;;5048095;28;20079;-62
2023/05/24 05:01:41;;;;;;;44.50;11.17;;;;;;;;;;5028690;28;20049;-62
2023/05/24 05:04:07;;;;;;;49.83;10.87;;;;;;;;;;5028596;28;20049;-62
2023/05/24 05:06:37;;;;;;;38.93;9.97;;;;;;;;;;5029012;28;20056;-62
2023/05/24 05:09:04;;;;;;;54.83;10.93;;;;;;;;;;5028529;28;20053;-62
2023/05/24 05:11:30;;;;;;;37.80;9.53;;;;;;;;;;5028039;28;20045;-62
2023/05/24 05:13:56;;;;;;;32.87;8.60;;;;;;;;;;5028799;28;20048;-61
2023/05/24 05:16:22;;;;;;;30.73;12.03;;;;;;;;;;5028399;28;20076;-62
2023/05/24 05:18:48;;;;;;;47.87;10.90;;;;;;;;;;5030005;28;20049;-63
2023/05/24 05:21:15;;;;;;;37.07;9.23;;;;;;;;;;5031845;28;20060;-62
2023/05/24 05:23:41;;;;;;;38.03;10.10;;;;;;;;;;5032409;28;20523;-62
2023/05/24 05:26:07;;;;;;;50.07;9.77;;;;;;;;;;5032319;28;20049;-62
2023/05/24 05:28:33;;;;;;;40.70;10.23;;;;;;;;;;5032289;28;20049;-62
2023/05/24 05:30:59;;;;;;;30.77;8.73;;;;;;;;;;5043172;28;20041;-62
2023/05/24 05:33:26;;;;;;;41.60;9.83;;;;;;;;;;5047361;28;20049;-62
2023/05/24 05:35:52;;;;;;;40.70;9.10;;;;;;;;;;5036414;28;20096;-62
2023/05/24 05:38:18;;;;;;;36.37;7.93;;;;;;;;;;5031395;28;20199;-62
2023/05/24 05:40:44;;;;;;;29.83;8.30;;;;;;;;;;5031805;28;20049;-63
2023/05/24 05:43:10;;;;;;;28.00;7.83;;;;;;;;;;5031977;28;20125;-62
2023/05/24 05:45:36;;;;;;;31.83;8.23;;;;;;;;;;5031981;28;20045;-62
2023/05/24 05:48:02;;;;;;;31.20;7.83;;;;;;;;;;5032321;28;20132;-62
2023/05/24 05:50:28;;;;;;;28.97;7.93;;;;;;;;;;5031194;28;20179;-63
2023/05/24 05:52:55;;;;;;;36.40;7.33;;;;;;;;;;5032291;28;20041;-63
2023/05/24 05:55:21;;;;;;;35.13;7.13;;;;;;;;;;5032341;28;20055;-63
2023/05/24 05:57:47;;;;;;;31.03;6.90;;;;;;;;;;5050795;28;20507;-64
2023/05/24 06:00:13;;;;;;;25.93;6.20;;;;;;;;;;5049620;28;20048;-63
2023/05/24 06:02:39;;;;;;;28.70;6.07;;;;;;;;;;5044801;28;20060;-62
2023/05/24 06:05:06;;;;;;;30.63;6.07;;;;;;;;;;5044493;28;20061;-63
2023/05/24 06:07:32;;;;;;;21.33;5.80;;;;;;;;;;5042138;28;20045;-63
2023/05/24 06:09:58;;;;;;;29.43;5.67;;;;;;;;;;5043177;28;20087;-63
2023/05/24 06:12:25;;;;;;;19.10;5.53;;;;;;;;;;5046745;28;20041;-63
2023/05/24 06:14:51;;;;;;;25.23;6.43;;;;;;;;;;5039080;28;20072;-63
2023/05/24 06:17:18;;;;;;;26.43;5.93;;;;;;;;;;5070806;28;20405;-64
2023/05/24 06:19:44;;;;;;;25.23;7.00;;;;;;;;;;5055079;28;20495;-63
2023/05/24 06:22:11;;;;;;;25.33;5.97;;;;;;;;;;5050358;28;20123;-63
2023/05/24 06:24:38;;;;;;;23.53;5.33;;;;;;;;;;5050010;28;20132;-63
2023/05/24 06:27:05;;;;;;;22.70;5.70;;;;;;;;;;5051205;28;20128;-63
2023/05/24 06:29:31;;;;;;;24.50;5.03;;;;;;;;;;5044627;28;20507;-63
2023/05/24 06:31:57;;;;;;;24.57;5.77;;;;;;;;;;5041952;28;20118;-60
2023/05/24 06:34:23;;;;;;;18.27;4.97;;;;;;;;;;5042413;28;20595;-63
2023/05/24 06:36:50;;;;;;;26.00;6.17;;;;;;;;;;5050718;28;20087;-63
2023/05/24 06:39:16;;;;;;;21.03;4.53;;;;;;;;;;5050575;28;20089;-60
2023/05/24 06:41:43;;;;;;;24.70;5.70;;;;;;;;;;5047998;28;20606;-62
2023/05/24 06:44:09;;;;;;;24.17;4.53;;;;;;;;;;5049075;28;20053;-61
2023/05/24 06:46:35;;;;;;;23.73;5.30;;;;;;;;;;5046628;28;20131;-62
2023/05/24 06:49:02;;;;;;;16.27;4.13;;;;;;;;;;5049261;28;20071;-61
2023/05/24 06:51:28;;;;;;;23.27;4.70;;;;;;;;;;5048924;28;20165;-62
2023/05/24 06:53:54;;;;;;;19.60;4.67;;;;;;;;;;5049963;28;20124;-62
2023/05/24 06:56:20;;;;;;;19.50;4.63;;;;;;;;;;5046666;28;20203;-62
2023/05/24 06:58:46;;;;;;;18.37;4.30;;;;;;;;;;5049537;28;20131;-62
2023/05/24 07:01:13;;;;;;;21.70;4.27;;;;;;;;;;5049683;28;20081;-62
2023/05/24 07:03:39;;;;;;;22.37;4.67;;;;;;;;;;5047004;28;20510;-62
2023/05/24 07:06:06;;;;;;;19.77;4.73;;;;;;;;;;5049661;28;20120;-63
2023/05/24 07:08:32;;;;;;;18.83;5.10;;;;;;;;;;5049425;28;20052;-62
2023/05/24 07:10:58;;;;;;;22.03;5.30;;;;;;;;;;5050274;28;20418;-63
2023/05/24 07:13:24;;;;;;;20.17;5.00;;;;;;;;;;5048916;28;20102;-62
2023/05/24 07:15:50;;;;;;;20.73;4.97;;;;;;;;;;5046460;28;20046;-62
2023/05/24 07:18:16;;;;;;;24.27;5.60;;;;;;;;;;5038756;28;20460;-62
2023/05/24 07:20:42;;;;;;;22.53;5.40;;;;;;;;;;5049725;28;20560;-62
2023/05/24 07:23:08;;;;;;;15.87;4.10;;;;;;;;;;5046715;28;20389;-62
2023/05/24 07:25:34;;;;;;;24.50;5.97;;;;;;;;;;5042327;28;20068;-62
2023/05/24 07:28:00;;;;;;;20.17;4.10;;;;;;;;;;5049183;28;20067;-62
2023/05/24 07:30:27;;;;;;;15.93;4.60;;;;;;;;;;5050116;28;20171;-62
2023/05/24 07:32:53;;;;;;;19.07;4.87;;;;;;;;;;5048429;28;20515;-62
2023/05/24 07:35:20;;;;;;;14.63;4.00;;;;;;;;;;5048884;28;20041;-62
2023/05/24 07:37:46;;;;;;;19.10;4.33;;;;;;;;;;5048223;28;20045;-63
2023/05/24 07:40:13;;;;;;;19.07;4.00;;;;;;;;;;5049901;28;20041;-62
2023/05/24 07:42:39;;;;;;;17.97;3.90;;;;;;;;;;5048681;28;20052;-62
2023/05/24 07:45:06;;;;;;;18.93;4.40;;;;;;;;;;5049146;28;20040;-62
2023/05/24 07:47:32;;;;;;;16.63;3.80;;;;;;;;;;5048639;28;20045;-62
2023/05/24 07:49:58;;;;;;;15.47;4.33;;;;;;;;;;5031383;28;20056;-62
2023/05/24 07:52:25;;;;;;;13.47;3.57;;;;;;;;;;5041231;28;20046;-62
2023/05/24 07:54:51;;;;;;;16.30;3.73;;;;;;;;;;5041435;28;20092;-62
2023/05/24 07:57:18;;;;;;;13.13;3.33;;;;;;;;;;5038924;28;20095;-62
2023/05/24 07:59:45;;;;;;;13.93;3.43;;;;;;;;;;5048852;28;20068;-63
2023/05/24 08:02:12;;;;;;;16.10;3.70;;;;;;;;;;5038021;28;20116;-62
2023/05/24 08:04:39;;;;;;;15.17;3.53;;;;;;;;;;5047061;28;20049;-62
2023/05/24 08:07:05;;;;;;;10.23;2.93;;;;;;;;;;5047664;28;20045;-62
2023/05/24 08:09:35;;;;;;;10.77;2.73;;;;;;;;;;5048266;28;20476;-62
2023/05/24 08:12:05;;;;;;;10.53;2.83;;;;;;;;;;5048534;28;20104;-62
2023/05/24 08:14:31;;;;;;;10.00;3.43;;;;;;;;;;5049005;28;20041;-62
2023/05/24 08:16:59;;;;;;;15.40;3.43;;;;;;;;;;5048221;28;20475;-62
2023/05/24 08:19:26;;;;;;;11.47;3.00;;;;;;;;;;5048224;28;20075;-62
2023/05/24 08:21:52;;;;;;;9.97;3.07;;;;;;;;;;5047578;28;20044;-62
2023/05/24 08:24:19;;;;;;;13.63;3.30;;;;;;;;;;5048808;28;20041;-62
2023/05/24 08:26:45;;;;;;;10.47;3.27;;;;;;;;;;5048304;28;20074;-62
2023/05/24 08:29:11;;;;;;;8.53;2.77;;;;;;;;;;5046840;28;20045;-62
2023/05/24 08:31:37;;;;;;;9.50;3.00;;;;;;;;;;5047615;28;20388;-62
2023/05/24 08:34:04;;;;;;;11.63;2.90;;;;;;;;;;5047489;28;20041;-62
2023/05/24 08:36:31;;;;;;;14.13;3.07;;;;;;;;;;5047639;28;20090;-62
2023/05/24 08:38:58;;;;;;;13.10;3.10;;;;;;;;;;5048176;28;20403;-62
2023/05/24 08:41:26;;;;;;;8.80;3.23;;;;;;;;;;5047681;28;20056;-62
2023/05/24 08:43:53;;;;;;;10.70;3.03;;;;;;;;;;5047080;28;20053;-62
2023/05/24 08:46:19;;;;;;;7.37;2.77;;;;;;;;;;5047578;28;20075;-62
2023/05/24 08:48:46;;;;;;;12.60;3.90;;;;;;;;;;5047432;28;20049;-62
2023/05/24 08:51:16;;;;;;;13.53;3.77;;;;;;;;;;5047349;28;20414;-62
2023/05/24 08:53:47;;;;;;;11.67;3.40;;;;;;;;;;5050576;28;20507;-62
2023/05/24 08:56:16;;;;;;;9.60;3.13;;;;;;;;;;5054232;28;20557;-63
2023/05/24 08:58:42;;;;;;;14.37;3.70;;;;;;;;;;5054340;28;20095;-62
2023/05/24 09:01:09;;;;;;;16.13;4.00;;;;;;;;;;5054067;28;20044;-63
2023/05/24 09:03:36;;;;;;;12.00;3.20;;;;;;;;;;5054442;28;20429;-62
2023/05/24 09:06:03;;;;;;;13.00;3.37;;;;;;;;;;5054393;28;20048;-62
2023/05/24 09:08:32;;;;;;;9.20;2.90;;;;;;;;;;5054168;28;20088;-63
2023/05/24 09:10:58;;;;;;;13.63;3.00;;;;;;;;;;5054278;28;20064;-62
2023/05/24 09:13:24;;;;;;;9.97;3.80;;;;;;;;;;5053674;28;20436;-62
2023/05/24 09:15:50;;;;;;;10.20;3.23;;;;;;;;;;5054287;28;20052;-62
2023/05/24 09:18:16;;;;;;;7.27;3.30;;;;;;;;;;5054264;28;20049;-62
2023/05/24 09:20:42;;;;;;;10.23;2.93;;;;;;;;;;5054062;28;20049;-62
2023/05/24 09:23:09;;;;;;;11.73;3.13;;;;;;;;;;5053837;28;20044;-62
2023/05/24 09:25:35;;;;;;;8.13;2.67;;;;;;;;;;5054053;28;20037;-62
2023/05/24 09:28:06;;;;;;;8.10;2.33;;;;;;;;;;5053945;28;20576;-62
2023/05/24 09:30:32;;;;;;;10.07;2.80;;;;;;;;;;5054095;28;21232;-62
2023/05/24 09:32:59;;;;;;;10.03;2.93;;;;;;;;;;5053963;28;20140;-63
2023/05/24 09:35:26;;;;;;;11.37;2.87;;;;;;;;;;5053779;28;20064;-62
2023/05/24 09:37:56;;;;;;;7.37;2.30;;;;;;;;;;5053725;28;20084;-62
2023/05/24 09:40:23;;;;;;;11.93;3.47;;;;;;;;;;5054150;28;20076;-62
2023/05/24 09:43:01;;;;;;;10.20;3.07;;;;;;;;;;5054004;28;20447;-62
2023/05/24 09:45:27;;;;;;;9.60;2.97;;;;;;;;;;5053824;28;20103;-62
2023/05/24 09:47:53;;;;;;;6.57;2.47;;;;;;;;;;5054061;28;20123;-63
2023/05/24 09:50:19;;;;;;;6.40;2.37;;;;;;;;;;5053347;28;20056;-62
2023/05/24 09:52:46;;;;;;;9.60;2.60;;;;;;;;;;5053720;28;20052;-62
2023/05/24 09:55:15;;;;;;;6.90;2.90;;;;;;;;;;5052851;28;20554;-62
2023/05/24 09:57:41;;;;;;;8.03;3.03;;;;;;;;;;5053833;28;20060;-62
2023/05/24 10:00:15;;;;;;;6.23;2.93;;;;;;;;;;5053092;28;20135;-62
2023/05/24 10:02:41;;;;;;;9.57;2.97;;;;;;;;;;5053806;28;20045;-63
2023/05/24 10:05:10;;;;;;;9.70;3.00;;;;;;;;;;5051150;28;20045;-62
2023/05/24 10:07:37;;;;;;;8.67;3.10;;;;;;;;;;5049705;28;20049;-62
2023/05/24 10:10:04;;;;;;;9.07;2.80;;;;;;;;;;5050280;28;20049;-62
2023/05/24 10:12:30;;;;;;;11.47;3.07;;;;;;;;;;5050232;28;20049;-62
2023/05/24 10:14:57;;;;;;;10.00;3.03;;;;;;;;;;5050562;28;20041;-62
2023/05/24 10:17:26;;;;;;;7.80;2.80;;;;;;;;;;5050626;28;20045;-63
2023/05/24 10:19:52;;;;;;;8.70;2.57;;;;;;;;;;5050902;28;20045;-62
2023/05/24 10:22:23;;;;;;;6.80;2.97;;;;;;;;;;5050542;28;20109;-62
2023/05/24 10:24:57;;;;;;;7.13;2.97;;;;;;;;;;5049931;28;20120;-62
2023/05/24 10:27:25;;;;;;;6.30;2.73;;;;;;;;;;5049910;28;20045;-62
2023/05/24 10:30:12;;;;;;;7.93;2.37;;;;;;;;;;5048922;28;20052;-63
2023/05/24 10:32:38;;;;;;;6.90;2.60;;;;;;;;;;5050132;28;20102;-63
2023/05/24 10:35:06;;;;;;;7.53;2.40;;;;;;;;;;5050367;28;20045;-62
2023/05/24 10:37:33;;;;;;;9.32;2.92;;;;;;;;;;5049486;28;20107;-62
2023/05/24 10:39:59;;;;;;;6.88;2.55;;;;;;;;;;5050080;28;20094;-63
2023/05/24 10:42:26;;;;;;;7.13;3.05;;;;;;;;;;5049916;28;20483;-63
2023/05/24 10:44:52;;;;;;;8.30;3.00;;;;;;;;;;5050272;28;20045;-63
2023/05/24 10:47:20;;;;;;;7.90;3.33;;;;;;;;;;5049317;28;20456;-63
2023/05/24 10:49:56;;;;;;;8.95;2.70;;;;;;;;;;5050185;28;20037;-63
2023/05/24 10:52:33;;;;;;;8.93;3.15;;;;;;;;;;5049416;28;20052;-63
2023/05/24 10:55:09;;;;;;;8.15;2.80;;;;;;;;;;5049956;28;20377;-63
2023/05/24 10:57:35;;;;;;;7.00;2.75;;;;;;;;;;5049831;28;20037;-63
2023/05/24 11:00:26;;;;;;;10.98;3.33;;;;;;;;;;5048966;28;20044;-63
2023/05/24 11:03:00;;;;;;;7.20;2.42;;;;;;;;;;5049918;28;20059;-63
2023/05/24 11:05:31;;;;;;;7.55;2.75;;;;;;;;;;5049434;28;20521;-63
2023/05/24 11:08:02;;;;;;;8.00;2.72;;;;;;;;;;5049342;28;20076;-63
2023/05/24 11:10:31;;;;;;;10.05;3.13;;;;;;;;;;5049284;28;20052;-62
2023/05/24 11:13:01;;;;;;;7.18;2.65;;;;;;;;;;5049119;28;20492;-63
2023/05/24 11:15:28;;;;;;;7.93;3.35;;;;;;;;;;5048897;28;20467;-61
2023/05/24 11:18:11;;;;;;;10.05;2.45;;;;;;;;;;5040666;28;20041;-60
2023/05/24 11:20:37;;;;;;;6.82;2.47;;;;;;;;;;5027588;28;20420;-60
2023/05/24 11:23:08;;;;;;;6.50;2.45;;;;;;;;;;5028494;28;20412;-60
2023/05/24 11:25:36;;;;;;;8.85;2.80;;;;;;;;;;5028941;28;20049;-62
2023/05/24 11:28:03;;;;;;;7.80;2.92;;;;;;;;;;5029434;28;20404;-64
2023/05/24 11:30:31;;;;;;;8.07;2.95;;;;;;;;;;5028820;28;20053;-60
2023/05/24 11:32:57;;;;;;;7.03;2.70;;;;;;;;;;5028526;28;20133;-60
2023/05/24 11:35:26;;;;;;;9.25;2.60;;;;;;;;;;5028978;28;20057;-60
2023/05/24 11:37:53;;;;;;;8.75;2.88;;;;;;;;;;5028955;28;20083;-60
2023/05/24 11:40:19;;;;;;;10.18;3.03;;;;;;;;;;5028547;28;20172;-60
2023/05/24 11:42:46;;;;;;;8.52;2.75;;;;;;;;;;5028936;28;20046;-60
2023/05/24 11:45:12;;;;;;;7.07;2.25;;;;;;;;;;5028860;28;20053;-62
2023/05/24 11:47:39;;;;;;;7.67;2.43;;;;;;;;;;5028695;28;20037;-63
2023/05/24 11:50:06;;;;;;;7.17;2.40;;;;;;;;;;5028366;28;20124;-63
2023/05/24 11:52:32;;;;;;;5.87;2.50;;;;;;;;;;5028779;28;20127;-62
2023/05/24 11:54:58;;;;;;;6.67;2.60;;;;;;;;;;5028546;28;20137;-63
2023/05/24 11:57:29;;;;;;;8.30;2.13;;;;;;;;;;5028612;28;20049;-63
2023/05/24 11:59:57;;;;;;;5.43;2.10;;;;;;;;;;5028453;28;20046;-62
2023/05/24 12:02:23;;;;;;;7.00;3.23;;;;;;;;;;5028517;28;20476;-63
2023/05/24 12:04:49;;;;;;;7.33;2.47;;;;;;;;;;5028587;28;20183;-63
2023/05/24 12:07:16;;;;;;;8.43;2.33;;;;;;;;;;5037061;28;20102;-63
2023/05/24 12:09:42;;;;;;;9.03;2.13;;;;;;;;;;5039335;28;20054;-63
2023/05/24 12:12:08;;;;;;;7.70;2.70;;;;;;;;;;5029129;28;20512;-62
2023/05/24 12:14:35;;;;;;;6.90;2.43;;;;;;;;;;5043659;28;20520;-60
2023/05/24 12:17:01;;;;;;;8.57;2.43;;;;;;;;;;5049598;28;20287;-63
2023/05/24 12:19:34;;;;;;;8.13;1.87;;;;;;;;;;5049225;28;20049;-63
2023/05/24 12:22:04;;;;;;;7.07;2.40;;;;;;;;;;5050322;28;20474;-63
2023/05/24 12:24:30;;;;;;;6.67;2.23;;;;;;;;;;5048535;28;20537;-60
2023/05/24 12:27:01;;;;;;;13.60;2.83;;;;;;;;;;5065007;28;20044;-60
2023/05/24 12:29:31;;;;;;;5.87;2.30;;;;;;;;;;5068501;28;20048;-63
2023/05/24 12:31:57;;;;;;;9.47;2.53;;;;;;;;;;5067736;28;20052;-60
2023/05/24 12:34:23;;;;;;;7.37;2.37;;;;;;;;;;5068382;28;20045;-61
2023/05/24 12:36:50;;;;;;;6.00;2.60;;;;;;;;;;5063795;28;20415;-61
2023/05/24 12:39:35;;;;;;;10.17;2.83;;;;;;;;;;5029209;28;20041;-62
2023/05/24 12:42:01;;;;;;;11.40;2.83;;;;;;;;;;5028933;28;20504;-61
2023/05/24 12:44:34;;;;;;;9.73;2.90;;;;;;;;;;5028413;28;20045;-62
2023/05/24 12:47:00;;;;;;;;;;;;;;;;;;5029481;28;20049;-62
2023/05/24 12:49:27;;;;;;;9.70;2.97;;;;;;;;;;5030624;28;20030;-61
2023/05/24 12:51:53;;;;;;;8.50;3.17;;;;;;;;;;5068745;28;20399;-61
2023/05/24 12:54:21;;;;;;;7.33;2.20;;;;;;;;;;5055506;28;20123;-61
2023/05/24 12:56:47;;;;;;;10.10;2.73;;;;;;;;;;5028762;28;20041;-61
2023/05/24 12:59:13;;;;;;;10.63;3.03;;;;;;;;;;5028500;28;20527;-61
2023/05/24 13:01:39;;;;;;;6.90;2.90;;;;;;;;;;5029729;28;20030;-61
2023/05/24 13:04:05;;;;;;;9.10;3.07;;;;;;;;;;5058031;28;20037;-61
2023/05/24 13:06:31;;;;;;;8.40;2.93;;;;;;;;;;5068760;28;20040;-61
2023/05/24 13:08:57;;;;;;;10.70;3.20;;;;;;;;;;5066590;28;20131;-61
2023/05/24 13:11:24;;;;;;;9.70;2.80;;;;;;;;;;5041004;28;20180;-61
2023/05/24 13:13:50;;;;;;;10.87;2.40;;;;;;;;;;5028923;28;20045;-61
2023/05/24 13:16:16;;;;;;;9.43;2.63;;;;;;;;;;5028823;28;20056;-61
2023/05/24 13:18:43;;;;;;;10.83;3.03;;;;;;;;;;5028194;28;20095;-61
2023/05/24 13:21:09;;;;;;;8.97;2.37;;;;;;;;;;5028692;28;20041;-62
2023/05/24 13:23:36;;;;;;;13.93;2.87;;;;;;;;;;5066241;28;20049;-61
2023/05/24 13:26:02;;;;;;;9.37;2.90;;;;;;;;;;5068739;28;20102;-61
2023/05/24 13:28:30;;;;;;;11.27;3.07;;;;;;;;;;5052745;28;20064;-62
2023/05/24 13:30:56;;;;;;;8.73;3.00;;;;;;;;;;5028127;28;20072;-61
2023/05/24 13:33:22;;;;;;;12.00;3.17;;;;;;;;;;5028391;28;20057;-61
2023/05/24 13:35:48;;;;;;;11.70;2.60;;;;;;;;;;5028328;28;20092;-61
2023/05/24 13:38:14;;;;;;;10.80;2.83;;;;;;;;;;5028558;28;20134;-61
2023/05/24 13:40:40;;;;;;;8.27;2.57;;;;;;;;;;5030617;28;20049;-61
2023/05/24 13:43:06;;;;;;;8.33;2.70;;;;;;;;;;5032023;28;20132;-61
2023/05/24 13:45:33;;;;;;;10.47;2.40;;;;;;;;;;5032612;28;20046;-62
2023/05/24 13:48:02;;;;;;;8.60;2.63;;;;;;;;;;5066536;28;20090;-61
2023/05/24 13:50:35;;;;;;;9.80;2.60;;;;;;;;;;5071186;28;20056;-61
2023/05/24 13:53:02;;;;;;;8.95;2.72;;;;;;;;;;5071923;28;20048;-61
2023/05/24 13:55:33;;;;;;;9.70;2.70;;;;;;;;;;5071662;28;20052;-61
2023/05/24 13:58:00;;;;;;;9.70;3.23;;;;;;;;;;5071415;28;20048;-61
2023/05/24 14:00:26;;;;;;;12.87;2.90;;;;;;;;;;5071398;28;20110;-62
2023/05/24 14:02:53;;;;;;;9.23;2.87;;;;;;;;;;5059552;28;20045;-62
2023/05/24 14:05:20;;;;;;;14.53;2.97;;;;;;;;;;5070131;28;20048;-62
2023/05/24 14:07:46;;;;;;;10.63;2.60;;;;;;;;;;5071671;28;20040;-62
2023/05/24 14:10:12;;;;;;;7.80;3.10;;;;;;;;;;5067679;28;20041;-62
2023/05/24 14:12:38;;;;;;;16.00;4.37;;;;;;;;;;5051806;28;20491;-62
2023/05/24 14:15:05;;;;;;;9.77;3.10;;;;;;;;;;5051479;28;20040;-62
2023/05/24 14:17:31;;;;;;;7.60;2.43;;;;;;;;;;5050988;28;20049;-61
2023/05/24 14:19:57;;;;;;;8.10;2.53;;;;;;;;;;5039893;28;20049;-61
2023/05/24 14:22:24;;;;;;;10.40;3.10;;;;;;;;;;5031044;28;20053;-61
2023/05/24 14:24:51;;;;;;;12.20;2.90;;;;;;;;;;5040837;28;20049;-61
2023/05/24 14:27:17;;;;;;;13.80;3.00;;;;;;;;;;5071492;28;20048;-61
2023/05/24 14:29:43;;;;;;;11.73;2.93;;;;;;;;;;5071049;28;20052;-61
2023/05/24 14:32:10;;;;;;;7.83;2.37;;;;;;;;;;5070789;28;20060;-62